EDT,Max TemperatureF,Mean TemperatureF,Min TemperatureF,Max Dew PointF,MeanDew PointF,Min DewpointF,Max Humidity, Mean Humidity, Min Humidity, Max Sea Level PressureIn, Mean Sea Level PressureIn, Min Sea Level PressureIn, Max VisibilityMiles, Mean VisibilityMiles, Min VisibilityMiles, Max Wind SpeedMPH, Mean Wind SpeedMPH, Max Gust SpeedMPH,PrecipitationIn, CloudCover, Events, WindDirDegrees
2012-10-1,68,62,57,64,59,55,94,87,77,29.93,29.88,29.85,10,9,4,9,4,,0.31,8,,80
2012-10-2,87,78,68,73,70,64,94,84,55,29.99,29.87,29.81,10,8,0,14,5,20,0.43,6,Thunderstorm,183
2012-10-3,84,78,73,72,69,64,94,79,54,30.20,30.09,30.00,10,9,6,8,4,,0.00,5,,231
2012-10-4,77,70,62,64,63,59,94,78,61,30.25,30.20,30.17,10,10,7,6,1,,0.00,4,,264
2012-10-5,80,68,57,61,57,52,94,72,41,30.20,30.13,30.04,10,8,0,7,1,,0.00,0,,158
2012-10-6,84,70,57,63,58,54,94,69,37,30.04,29.96,29.89,10,10,10,12,3,18,0.00,1,,252
2012-10-7,66,58,51,55,50,46,88,78,63,30.14,30.04,29.97,10,10,9,14,6,22,0.00,7,Thunderstorm,35
2012-10-8,53,50,46,48,45,43,93,83,67,30.20,30.15,30.12,10,9,3,16,6,20,0.99,8,Thunderstorm,39
2012-10-9,55,50,46,52,47,45,94,88,77,30.17,30.12,30.09,10,7,2,8,2,,0.00,8,,22
2012-10-10,71,60,48,52,49,46,94,73,43,30.13,30.07,30.01,10,10,7,9,1,,0.00,2,,275
2012-10-11,66,56,44,46,40,37,87,60,35,30.31,30.24,30.13,10,10,10,9,3,,0.00,0,,34
2012-10-12,73,57,41,50,43,37,93,66,36,30.32,30.23,30.18,10,10,3,8,1,,0.00,0,,6
2012-10-13,66,55,44,46,42,37,93,65,43,30.47,30.39,30.32,10,10,10,10,4,16,0.00,0,,63
2012-10-14,78,60,41,57,50,37,93,73,44,30.34,30.21,30.04,10,9,3,10,2,,0.00,2,,190
2012-10-15,77,67,57,64,58,43,88,74,59,30.05,29.88,29.73,10,10,10,15,8,23,0.01,4,Thunderstorm,238
2012-10-16,69,56,44,45,41,37,87,58,33,29.98,29.92,29.86,10,10,10,8,3,,0.00,0,,356
2012-10-17,69,54,39,48,43,37,93,68,33,30.02,29.97,29.93,10,10,8,9,1,16,0.00,0,,169
2012-10-18,78,61,44,63,54,41,93,76,54,29.94,29.87,29.79,10,10,2,15,3,21,0.00,3,,180
2012-10-19,75,62,50,63,51,36,94,65,24,29.80,29.77,29.72,10,10,5,20,7,22,0.18,2,,224
2012-10-20,71,60,48,46,41,37,82,56,31,29.97,29.84,29.77,10,10,10,10,5,,0.00,0,,256
2012-10-21,66,54,42,43,39,37,87,61,35,30.16,30.10,29.98,10,10,10,10,2,20,0.00,0,,16
2012-10-22,73,55,37,46,42,34,93,66,33,30.25,30.19,30.15,10,10,9,7,0,,0.00,0,,357
2012-10-23,78,60,42,52,46,39,93,63,32,30.21,30.16,30.12,10,10,8,8,2,,0.00,0,,218
2012-10-24,80,63,46,57,51,43,94,68,34,30.21,30.15,30.10,10,10,7,8,3,,0.00,0,,227
2012-10-25,80,63,46,57,53,45,94,71,44,30.18,30.13,30.09,10,10,4,8,1,,0.00,0,,99
2012-10-26,66,58,50,61,55,46,94,86,77,30.12,30.03,29.91,10,6,0,10,2,18,0.00,5,,31
2012-10-27,66,63,60,61,55,52,88,73,64,29.90,29.76,29.68,10,10,10,15,10,24,0.00,7,,32
2012-10-28,64,60,55,52,46,43,72,59,49,29.68,29.62,29.58,10,10,10,13,8,24,0.00,4,,14
2012-10-29,55,48,42,41,35,30,76,59,47,29.61,29.52,29.41,10,10,10,17,8,31,0.01,7,,312
2012-10-30,53,48,42,37,30,27,71,53,38,29.65,29.49,29.36,10,10,10,16,10,28,0.01,7,,271
2012-10-31,55,46,37,37,33,30,81,58,41,29.79,29.71,29.65,10,10,9,10,5,20,0.00,5,,265